Time;durP1;ratioP1;P1;durP2;ratioP2;P2;SDS_P1;SDS_P2;PMS_P1;PMS_P2;Temp;Humidity;BMP_temperature;BMP_pressure;BME280_temperature;BME280_humidity;BME280_pressure;Samples;Min_cycle;Max_cycle;Signal;HPM_P1;HPM_P2
2021/12/17 00:05:06;;;;;;;268.83;38.22;;;;;;;;;;5129534;27;20122;-82
2021/12/17 00:07:35;;;;;;;280.50;38.03;;;;;;;;;;5112257;27;20088;-81
2021/12/17 00:10:03;;;;;;;277.05;36.78;;;;;;;;;;5129653;27;20049;-82
2021/12/17 00:12:30;;;;;;;316.05;40.78;;;;;;;;;;5128666;27;20118;-82
2021/12/17 00:14:57;;;;;;;256.17;36.65;;;;;;;;;;5127831;27;20165;-82
2021/12/17 00:17:27;;;;;;;148.43;29.63;;;;;;;;;;5129289;27;20071;-82
2021/12/17 00:50:18;;;;;;;238.07;37.92;;;;;;;;;;5129208;27;20130;-79
2021/12/17 00:52:44;;;;;;;217.52;34.30;;;;;;;;;;5156609;27;20488;-78
2021/12/17 00:55:11;;;;;;;196.25;33.28;;;;;;;;;;5106147;27;20386;-78
2021/12/17 00:57:41;;;;;;;123.60;28.00;;;;;;;;;;5108588;27;20066;-78
2021/12/17 01:00:10;;;;;;;200.32;37.65;;;;;;;;;;5118980;27;20055;-78
2021/12/17 01:02:37;;;;;;;179.60;30.92;;;;;;;;;;5123401;27;20042;-79
2021/12/17 01:05:05;;;;;;;176.93;29.48;;;;;;;;;;5102846;27;20074;-79
2021/12/17 01:07:35;;;;;;;198.25;32.97;;;;;;;;;;5116537;27;20047;-79
2021/12/17 01:10:03;;;;;;;181.85;32.47;;;;;;;;;;5103836;27;20134;-79
2021/12/17 01:12:29;;;;;;;209.10;31.95;;;;;;;;;;5099520;27;20063;-79
2021/12/17 01:14:55;;;;;;;162.80;29.48;;;;;;;;;;5104107;28;20521;-79
2021/12/17 01:17:22;;;;;;;146.02;28.63;;;;;;;;;;5104308;28;20036;-79
2021/12/17 01:36:21;;;;;;;122.38;24.80;;;;;;;;;;5089673;28;20432;-79
2021/12/17 01:43:58;;;;;;;163.15;29.55;;;;;;;;;;5097593;28;20040;-79
2021/12/17 01:46:27;;;;;;;136.98;26.90;;;;;;;;;;5098660;28;20126;-80
2021/12/17 01:49:16;;;;;;;172.05;31.20;;;;;;;;;;5079481;28;20054;-79
2021/12/17 02:00:10;;;;;;;73.05;22.40;;;;;;;;;;5096521;28;20044;-80
2021/12/17 02:02:42;;;;;;;75.32;22.98;;;;;;;;;;5100155;28;20048;-79
2021/12/17 02:05:09;;;;;;;51.95;18.67;;;;;;;;;;5097201;28;20055;-80
2021/12/17 02:07:36;;;;;;;113.80;25.35;;;;;;;;;;5097596;28;20107;-80
2021/12/17 02:13:05;;;;;;;94.38;24.48;;;;;;;;;;5098015;28;20082;-79
2021/12/17 02:31:57;;;;;;;156.27;28.77;;;;;;;;;;5094212;28;20092;-79
2021/12/17 02:37:13;;;;;;;107.90;25.33;;;;;;;;;;5125619;27;20150;-79
2021/12/17 02:45:31;;;;;;;179.93;29.27;;;;;;;;;;5114544;28;20051;-78
2021/12/17 02:47:59;;;;;;;145.85;28.83;;;;;;;;;;5096621;28;20104;-79
2021/12/17 02:50:25;;;;;;;245.88;32.20;;;;;;;;;;5095242;28;20138;-78
2021/12/17 02:52:53;;;;;;;166.82;29.42;;;;;;;;;;5093985;28;20475;-78
2021/12/17 02:55:20;;;;;;;187.88;29.85;;;;;;;;;;5096792;28;20059;-80
2021/12/17 02:57:47;;;;;;;184.85;30.35;;;;;;;;;;5097331;28;20048;-77
2021/12/17 03:00:14;;;;;;;311.88;35.72;;;;;;;;;;5100502;28;20414;-77
2021/12/17 03:02:41;;;;;;;257.88;31.15;;;;;;;;;;5100448;28;20616;-79
2021/12/17 03:05:08;;;;;;;150.57;27.63;;;;;;;;;;5083782;28;20040;-78
2021/12/17 03:07:38;;;;;;;132.52;26.00;;;;;;;;;;5099379;28;20079;-78
2021/12/17 03:10:09;;;;;;;207.77;31.50;;;;;;;;;;5097672;28;20494;-78
2021/12/17 03:12:48;;;;;;;251.90;34.30;;;;;;;;;;5135445;27;20088;-78
2021/12/17 03:26:03;;;;;;;127.03;27.60;;;;;;;;;;5151388;27;20071;-78
2021/12/17 03:28:30;;;;;;;125.55;26.67;;;;;;;;;;5119545;28;20047;-78
2021/12/17 03:30:57;;;;;;;144.70;27.73;;;;;;;;;;5101458;28;20043;-78
2021/12/17 03:33:23;;;;;;;175.68;28.58;;;;;;;;;;5122224;28;20039;-79
2021/12/17 03:35:50;;;;;;;205.00;31.98;;;;;;;;;;5115203;28;20346;-78
2021/12/17 03:38:16;;;;;;;237.77;32.25;;;;;;;;;;5117407;28;20490;-79
2021/12/17 03:40:44;;;;;;;194.95;29.90;;;;;;;;;;5127867;27;20259;-78
2021/12/17 03:43:21;;;;;;;132.35;27.02;;;;;;;;;;5121489;28;20074;-78
2021/12/17 03:45:47;;;;;;;182.20;32.33;;;;;;;;;;5122040;28;20051;-78
2021/12/17 03:48:13;;;;;;;197.13;31.98;;;;;;;;;;5118560;27;20408;-78
2021/12/17 03:50:39;;;;;;;220.30;32.38;;;;;;;;;;5126220;27;20104;-78
2021/12/17 03:53:07;;;;;;;145.18;27.30;;;;;;;;;;5126445;27;20051;-78
2021/12/17 03:55:33;;;;;;;185.90;30.10;;;;;;;;;;5127112;27;20050;-78
2021/12/17 03:58:00;;;;;;;101.10;25.35;;;;;;;;;;5109620;27;20098;-78
2021/12/17 04:00:26;;;;;;;178.00;29.65;;;;;;;;;;5120168;27;20449;-78
2021/12/17 04:02:52;;;;;;;249.05;32.47;;;;;;;;;;5124715;27;20127;-78
2021/12/17 04:05:18;;;;;;;205.45;31.80;;;;;;;;;;5120556;27;20046;-80
2021/12/17 04:07:44;;;;;;;141.73;27.02;;;;;;;;;;5122545;27;20046;-76
2021/12/17 04:10:11;;;;;;;219.35;31.60;;;;;;;;;;5120416;27;20039;-77
2021/12/17 04:12:51;;;;;;;257.77;30.90;;;;;;;;;;5083301;28;20507;-76
2021/12/17 04:15:17;;;;;;;124.75;26.00;;;;;;;;;;5101156;28;20044;-77
2021/12/17 04:17:48;;;;;;;254.70;32.60;;;;;;;;;;5083565;28;20055;-76
2021/12/17 04:20:14;;;;;;;128.20;26.10;;;;;;;;;;5095499;28;20695;-77
2021/12/17 04:22:40;;;;;;;263.00;32.88;;;;;;;;;;5105152;28;20103;-77
2021/12/17 04:25:06;;;;;;;136.82;27.45;;;;;;;;;;5099688;28;20098;-80
2021/12/17 04:27:32;;;;;;;227.65;32.55;;;;;;;;;;5088354;28;20052;-76
2021/12/17 04:29:58;;;;;;;207.27;30.35;;;;;;;;;;5103318;28;20035;-76
2021/12/17 04:32:24;;;;;;;236.73;32.58;;;;;;;;;;5103875;28;20043;-76
2021/12/17 04:34:50;;;;;;;380.77;38.10;;;;;;;;;;5088753;28;20127;-76
2021/12/17 04:37:16;;;;;;;306.23;34.42;;;;;;;;;;5099647;28;20035;-79
2021/12/17 04:39:43;;;;;;;159.02;29.23;;;;;;;;;;5087869;28;20057;-77
2021/12/17 04:42:17;;;;;;;264.40;34.28;;;;;;;;;;5099778;28;20032;-76
2021/12/17 04:44:50;;;;;;;333.55;37.90;;;;;;;;;;5086849;28;20513;-76
2021/12/17 04:57:59;;;;;;;186.95;29.52;;;;;;;;;;5099154;28;20078;-77
2021/12/17 05:00:27;;;;;;;203.13;31.48;;;;;;;;;;5102469;28;20131;-76
2021/12/17 05:02:55;;;;;;;171.88;29.52;;;;;;;;;;5101312;28;20039;-77
2021/12/17 05:05:26;;;;;;;147.00;27.60;;;;;;;;;;5077445;28;20051;-77
2021/12/17 05:08:15;;;;;;;154.60;28.17;;;;;;;;;;5105971;28;20084;-77
2021/12/17 05:11:01;;;;;;;123.45;25.58;;;;;;;;;;5113639;27;20036;-76
2021/12/17 05:19:14;;;;;;;114.68;24.58;;;;;;;;;;5134873;27;20516;-77
2021/12/17 05:21:40;;;;;;;81.60;23.23;;;;;;;;;;5118664;27;20088;-77
2021/12/17 05:24:06;;;;;;;74.45;23.17;;;;;;;;;;5115526;27;20074;-77
2021/12/17 05:26:32;;;;;;;111.38;24.85;;;;;;;;;;5112441;27;20046;-78
2021/12/17 05:28:58;;;;;;;76.20;22.08;;;;;;;;;;5130338;27;20489;-77
2021/12/17 05:31:25;;;;;;;135.75;26.42;;;;;;;;;;5116348;27;20043;-76
2021/12/17 05:33:52;;;;;;;101.43;22.50;;;;;;;;;;5125165;27;20370;-77
2021/12/17 05:36:20;;;;;;;107.72;22.98;;;;;;;;;;5130791;27;20103;-77
2021/12/17 05:38:47;;;;;;;124.00;25.20;;;;;;;;;;5114877;27;20043;-76
2021/12/17 05:41:13;;;;;;;95.18;23.40;;;;;;;;;;5110825;27;20047;-79
2021/12/17 05:43:39;;;;;;;108.90;24.63;;;;;;;;;;5138480;27;20041;-77
2021/12/17 05:46:11;;;;;;;120.65;24.08;;;;;;;;;;5106101;27;20095;-76
2021/12/17 05:48:38;;;;;;;115.43;24.73;;;;;;;;;;5131187;27;20086;-78
2021/12/17 05:51:06;;;;;;;111.38;26.73;;;;;;;;;;5138066;27;20066;-77
2021/12/17 05:53:33;;;;;;;92.63;23.27;;;;;;;;;;5101302;27;20055;-76
2021/12/17 05:55:59;;;;;;;118.63;26.15;;;;;;;;;;5121874;27;20035;-77
2021/12/17 05:58:26;;;;;;;110.53;24.88;;;;;;;;;;5116419;27;20122;-77
2021/12/17 06:00:52;;;;;;;162.00;28.50;;;;;;;;;;5118668;27;20031;-78
2021/12/17 06:03:18;;;;;;;163.77;27.85;;;;;;;;;;5133385;27;20074;-76
2021/12/17 06:05:45;;;;;;;89.95;21.92;;;;;;;;;;5097913;27;20093;-75
2021/12/17 06:08:11;;;;;;;85.22;21.75;;;;;;;;;;5100277;27;20542;-74
2021/12/17 06:10:37;;;;;;;117.75;23.75;;;;;;;;;;5161559;27;20125;-81
2021/12/17 06:13:03;;;;;;;105.90;23.60;;;;;;;;;;5132279;27;20039;-75
2021/12/17 06:15:29;;;;;;;105.45;22.17;;;;;;;;;;5156146;27;20426;-76
2021/12/17 06:17:56;;;;;;;108.28;23.10;;;;;;;;;;5115717;27;20393;-80
2021/12/17 06:20:24;;;;;;;79.38;21.88;;;;;;;;;;5108918;27;20123;-75
2021/12/17 06:22:50;;;;;;;83.00;21.75;;;;;;;;;;5120576;27;20045;-77
2021/12/17 06:25:16;;;;;;;125.55;24.55;;;;;;;;;;5124292;27;20393;-76
2021/12/17 06:27:42;;;;;;;116.25;22.55;;;;;;;;;;5126904;27;20043;-76
2021/12/17 06:30:10;;;;;;;72.00;20.70;;;;;;;;;;5161563;27;20046;-75
2021/12/17 06:32:36;;;;;;;63.58;19.73;;;;;;;;;;5110976;27;20477;-76
2021/12/17 06:35:04;;;;;;;118.93;24.35;;;;;;;;;;5115725;28;20126;-76
2021/12/17 06:37:30;;;;;;;104.35;22.83;;;;;;;;;;5158573;27;20085;-75
2021/12/17 06:39:58;;;;;;;91.63;22.17;;;;;;;;;;5105416;28;20051;-76
2021/12/17 06:42:26;;;;;;;80.05;19.20;;;;;;;;;;5112092;27;20084;-76
2021/12/17 06:44:55;;;;;;;93.68;21.45;;;;;;;;;;5143003;27;20099;-76
2021/12/17 06:49:58;;;;;;;108.03;23.10;;;;;;;;;;5128763;27;20074;-76
2021/12/17 07:10:51;;;;;;;50.33;16.95;;;;;;;;;;5114427;27;20039;-77
2021/12/17 07:32:42;;;;;;;74.25;21.33;;;;;;;;;;5116502;27;20164;-78
2021/12/17 07:40:04;;;;;;;63.47;18.63;;;;;;;;;;5133263;27;20046;-81
2021/12/17 07:42:31;;;;;;;58.67;19.10;;;;;;;;;;5120430;27;20046;-77
2021/12/17 07:44:57;;;;;;;73.30;22.35;;;;;;;;;;5142272;27;20042;-78
2021/12/17 07:47:24;;;;;;;79.32;22.38;;;;;;;;;;5110457;27;20124;-79
2021/12/17 07:49:50;;;;;;;65.05;20.05;;;;;;;;;;5131465;27;20147;-78
2021/12/17 07:52:16;;;;;;;64.38;18.52;;;;;;;;;;5132338;27;20043;-79
2021/12/17 07:54:42;;;;;;;64.20;20.73;;;;;;;;;;5131873;27;20087;-78
2021/12/17 07:57:09;;;;;;;68.25;21.27;;;;;;;;;;5131975;27;20042;-78
2021/12/17 07:59:35;;;;;;;75.32;22.40;;;;;;;;;;5163417;27;20540;-78
2021/12/17 08:02:01;;;;;;;63.70;21.30;;;;;;;;;;5131152;27;20481;-79
2021/12/17 08:04:27;;;;;;;51.58;18.13;;;;;;;;;;5132806;27;20460;-79
2021/12/17 08:06:53;;;;;;;66.22;18.27;;;;;;;;;;5130810;27;20047;-80
2021/12/17 08:09:20;;;;;;;61.95;20.77;;;;;;;;;;5114316;27;20074;-78
2021/12/17 08:11:54;;;;;;;54.25;18.73;;;;;;;;;;5129787;27;20498;-79
2021/12/17 08:14:20;;;;;;;58.22;19.92;;;;;;;;;;5127502;27;20046;-79
2021/12/17 08:17:26;;;;;;;61.47;20.17;;;;;;;;;;5141121;27;20054;-79
2021/12/17 08:25:26;;;;;;;56.55;20.92;;;;;;;;;;5158081;27;20051;-79
2021/12/17 08:28:07;;;;;;;64.97;20.90;;;;;;;;;;5160042;27;20058;-79
2021/12/17 08:30:39;;;;;;;56.60;20.35;;;;;;;;;;5127062;27;20304;-78
2021/12/17 08:33:06;;;;;;;64.88;22.45;;;;;;;;;;5109271;27;20042;-78
2021/12/17 08:35:33;;;;;;;58.00;21.00;;;;;;;;;;5133626;27;20138;-79
2021/12/17 08:37:59;;;;;;;52.92;21.38;;;;;;;;;;5098201;27;20039;-76
2021/12/17 08:40:26;;;;;;;65.93;22.70;;;;;;;;;;5113259;27;20045;-77
2021/12/17 08:42:55;;;;;;;61.10;21.92;;;;;;;;;;5110884;27;20085;-79
2021/12/17 08:45:21;;;;;;;81.13;24.17;;;;;;;;;;5132231;27;20039;-78
2021/12/17 08:47:48;;;;;;;67.65;29.38;;;;;;;;;;5122912;27;20069;-79
2021/12/17 08:50:15;;;;;;;68.20;23.88;;;;;;;;;;5133727;27;20107;-77
2021/12/17 08:52:41;;;;;;;59.97;21.42;;;;;;;;;;5098381;27;20043;-78
2021/12/17 08:55:10;;;;;;;55.67;21.23;;;;;;;;;;5129540;27;20083;-82
2021/12/17 08:57:36;;;;;;;59.58;20.92;;;;;;;;;;5114689;27;20035;-82
2021/12/17 09:00:06;;;;;;;59.35;22.63;;;;;;;;;;5112853;27;20038;-82
2021/12/17 09:02:33;;;;;;;59.83;22.63;;;;;;;;;;5114416;27;20037;-82
2021/12/17 09:05:00;;;;;;;49.13;21.23;;;;;;;;;;5128310;27;20041;-83
2021/12/17 09:07:26;;;;;;;47.17;19.90;;;;;;;;;;5115188;27;20034;-82
2021/12/17 09:09:52;;;;;;;59.05;20.50;;;;;;;;;;5127274;27;20117;-82
2021/12/17 09:12:18;;;;;;;48.08;19.52;;;;;;;;;;5114220;27;20054;-85
2021/12/17 09:14:44;;;;;;;49.10;20.17;;;;;;;;;;5111059;27;20039;-85
2021/12/17 09:17:10;;;;;;;49.50;19.83;;;;;;;;;;5124281;27;20370;-83
2021/12/17 09:19:36;;;;;;;53.13;19.95;;;;;;;;;;5107000;27;20708;-81
2021/12/17 09:22:02;;;;;;;52.20;19.60;;;;;;;;;;5118961;27;20905;-81
2021/12/17 09:24:28;;;;;;;45.50;19.63;;;;;;;;;;5158725;27;20053;-82
2021/12/17 09:26:55;;;;;;;42.63;17.52;;;;;;;;;;5124833;27;20046;-82
2021/12/17 09:29:21;;;;;;;46.15;19.08;;;;;;;;;;5128856;27;20049;-81
2021/12/17 09:31:47;;;;;;;48.45;18.23;;;;;;;;;;5129714;27;20046;-81
2021/12/17 09:34:13;;;;;;;51.20;18.77;;;;;;;;;;5128176;27;20124;-81
2021/12/17 09:36:39;;;;;;;50.85;18.95;;;;;;;;;;5102446;27;20046;-81
2021/12/17 09:39:05;;;;;;;51.85;19.77;;;;;;;;;;5127150;27;20039;-81
2021/12/17 09:41:31;;;;;;;46.80;18.98;;;;;;;;;;5098011;27;20094;-81
2021/12/17 09:43:57;;;;;;;46.28;18.50;;;;;;;;;;5129865;27;20496;-81
2021/12/17 09:46:24;;;;;;;37.38;17.83;;;;;;;;;;5113294;27;20363;-81
2021/12/17 09:48:50;;;;;;;55.55;19.83;;;;;;;;;;5151197;27;20038;-82
2021/12/17 09:51:18;;;;;;;42.63;16.98;;;;;;;;;;5121852;27;20074;-81
2021/12/17 09:53:44;;;;;;;49.97;20.05;;;;;;;;;;5129768;27;20043;-77
2021/12/17 09:56:11;;;;;;;39.67;17.50;;;;;;;;;;5114848;27;20133;-79
2021/12/17 09:58:37;;;;;;;42.22;17.50;;;;;;;;;;5113223;27;20055;-78
2021/12/17 10:01:03;;;;;;;50.05;19.23;;;;;;;;;;5113541;27;22034;-79
2021/12/17 10:03:29;;;;;;;46.85;19.10;;;;;;;;;;5113708;27;21330;-78
2021/12/17 10:05:55;;;;;;;36.65;16.42;;;;;;;;;;5095695;27;20077;-79
2021/12/17 10:08:23;;;;;;;42.72;17.45;;;;;;;;;;5131681;27;20080;-79
2021/12/17 10:10:50;;;;;;;32.30;15.55;;;;;;;;;;5123910;27;20359;-81
2021/12/17 10:13:21;;;;;;;34.47;15.52;;;;;;;;;;5118429;27;20043;-82
2021/12/17 10:15:49;;;;;;;38.63;15.90;;;;;;;;;;5113867;27;20599;-81
2021/12/17 10:18:16;;;;;;;45.05;17.00;;;;;;;;;;5113714;27;20491;-81
2021/12/17 10:20:53;;;;;;;34.17;15.32;;;;;;;;;;5132311;27;20127;-81
2021/12/17 10:23:21;;;;;;;32.03;14.05;;;;;;;;;;5132158;27;20042;-82
2021/12/17 10:25:47;;;;;;;37.40;14.80;;;;;;;;;;5130105;27;20047;-83
2021/12/17 10:28:16;;;;;;;39.65;15.25;;;;;;;;;;5129746;27;20546;-81
2021/12/17 10:30:44;;;;;;;30.00;14.02;;;;;;;;;;5111996;27;20058;-81
2021/12/17 10:33:11;;;;;;;39.58;14.65;;;;;;;;;;5127514;27;20548;-82
2021/12/17 10:35:40;;;;;;;31.75;13.75;;;;;;;;;;5110214;27;20152;-82
2021/12/17 10:38:10;;;;;;;35.30;13.82;;;;;;;;;;5128704;27;20083;-82
2021/12/17 10:40:39;;;;;;;32.22;14.18;;;;;;;;;;5127458;27;20050;-81
2021/12/17 10:43:23;;;;;;;28.80;13.18;;;;;;;;;;5129969;27;20043;-82
2021/12/17 10:46:20;;;;;;;29.48;12.82;;;;;;;;;;5113636;27;20061;-81
2021/12/17 10:52:00;;;;;;;27.10;12.20;;;;;;;;;;5127536;27;20067;-82
2021/12/17 10:54:05;;;;;;;30.23;13.80;;;;;;;;;;5113275;27;20043;-81
2021/12/17 10:56:32;;;;;;;28.77;12.85;;;;;;;;;;5126380;27;20082;-82
2021/12/17 10:59:03;;;;;;;29.95;13.68;;;;;;;;;;5147407;27;20046;-80
2021/12/17 11:01:31;;;;;;;30.83;13.88;;;;;;;;;;5134621;27;20142;-82
2021/12/17 11:04:16;;;;;;;35.80;14.82;;;;;;;;;;5117276;27;20050;-82
2021/12/17 11:06:51;;;;;;;36.13;14.40;;;;;;;;;;5140182;27;20050;-82
2021/12/17 11:09:36;;;;;;;31.58;14.15;;;;;;;;;;5132045;27;20046;-82
2021/12/17 11:12:07;;;;;;;30.90;13.63;;;;;;;;;;5126798;27;20405;-82
2021/12/17 11:14:33;;;;;;;33.13;14.25;;;;;;;;;;5115517;27;20047;-81
2021/12/17 11:16:59;;;;;;;34.35;15.13;;;;;;;;;;5130985;27;20401;-85
2021/12/17 11:19:25;;;;;;;32.88;14.20;;;;;;;;;;5134395;27;20393;-82
2021/12/17 11:21:52;;;;;;;38.95;15.23;;;;;;;;;;5133642;27;20492;-82
2021/12/17 11:24:18;;;;;;;24.98;13.20;;;;;;;;;;5117261;27;20485;-83
2021/12/17 11:26:44;;;;;;;24.92;13.15;;;;;;;;;;5122314;27;20043;-85
2021/12/17 11:29:10;;;;;;;29.52;14.13;;;;;;;;;;5121883;27;20054;-83
2021/12/17 11:31:37;;;;;;;23.48;12.82;;;;;;;;;;5112673;27;20059;-80
2021/12/17 11:34:03;;;;;;;20.70;12.50;;;;;;;;;;5116774;27;20117;-79
2021/12/17 11:36:29;;;;;;;23.35;11.57;;;;;;;;;;5132900;27;20042;-83
2021/12/17 11:39:31;;;;;;;24.10;11.88;;;;;;;;;;5123477;27;20136;-86
2021/12/17 11:42:06;;;;;;;24.48;12.43;;;;;;;;;;5067653;28;20399;-82
2021/12/17 11:44:42;;;;;;;22.77;10.57;;;;;;;;;;5105686;27;20131;-78
2021/12/17 11:47:12;;;;;;;20.88;11.85;;;;;;;;;;5118178;27;20500;-80
2021/12/17 11:49:39;;;;;;;19.45;11.35;;;;;;;;;;5118470;27;20090;-81
2021/12/17 11:52:06;;;;;;;18.65;10.85;;;;;;;;;;5133249;27;20031;-83
2021/12/17 11:54:33;;;;;;;20.67;12.05;;;;;;;;;;5135107;27;20500;-80
2021/12/17 11:57:07;;;;;;;18.02;11.38;;;;;;;;;;5129283;27;20057;-79
2021/12/17 11:59:33;;;;;;;;;;;;;;;;;;5129108;27;20481;-79
2021/12/17 12:02:02;;;;;;;18.20;10.68;;;;;;;;;;5132355;27;20023;-80
2021/12/17 12:04:40;;;;;;;17.38;11.02;;;;;;;;;;5114221;27;20065;-83
2021/12/17 12:07:10;;;;;;;19.67;10.68;;;;;;;;;;5125812;27;20042;-80
2021/12/17 12:10:08;;;;;;;20.38;10.75;;;;;;;;;;5118571;27;20038;-81
2021/12/17 12:12:34;;;;;;;16.52;10.85;;;;;;;;;;5109554;27;20055;-80
2021/12/17 12:15:23;;;;;;;18.67;11.00;;;;;;;;;;5131657;27;20043;-81
2021/12/17 12:17:58;;;;;;;18.95;11.23;;;;;;;;;;5113084;27;20117;-82
2021/12/17 12:20:43;;;;;;;17.17;10.00;;;;;;;;;;5163715;27;20039;-81
2021/12/17 12:23:28;;;;;;;19.42;11.68;;;;;;;;;;5128216;27;20146;-82
2021/12/17 12:26:03;;;;;;;14.90;10.10;;;;;;;;;;5132939;27;20046;-82
2021/12/17 12:28:48;;;;;;;15.18;9.90;;;;;;;;;;5131794;27;20078;-81
2021/12/17 12:31:20;;;;;;;16.42;10.10;;;;;;;;;;5132451;27;20046;-81
2021/12/17 12:36:46;;;;;;;13.75;8.98;;;;;;;;;;5133225;27;20537;-82
2021/12/17 12:39:21;;;;;;;12.27;9.25;;;;;;;;;;5119555;27;20038;-81
2021/12/17 12:41:49;;;;;;;11.43;8.65;;;;;;;;;;5115254;27;20031;-80
2021/12/17 12:44:16;;;;;;;25.98;11.82;;;;;;;;;;5132372;27;20122;-81
2021/12/17 12:46:49;;;;;;;18.88;10.25;;;;;;;;;;5115070;27;20476;-82
2021/12/17 12:49:34;;;;;;;16.80;9.32;;;;;;;;;;5115977;27;20056;-82
2021/12/17 12:52:20;;;;;;;14.55;10.13;;;;;;;;;;5112552;27;20033;-81
2021/12/17 12:54:51;;;;;;;13.55;9.45;;;;;;;;;;5108123;27;20510;-81
2021/12/17 12:57:27;;;;;;;16.13;9.88;;;;;;;;;;5132846;27;20039;-82
2021/12/17 12:59:54;;;;;;;16.50;9.77;;;;;;;;;;5131805;27;20045;-82
2021/12/17 13:02:21;;;;;;;14.77;9.02;;;;;;;;;;5114230;27;20073;-79
2021/12/17 13:04:47;;;;;;;15.63;9.75;;;;;;;;;;5114021;27;20049;-79
2021/12/17 13:07:16;;;;;;;12.02;8.77;;;;;;;;;;5132502;27;20133;-80
2021/12/17 13:09:45;;;;;;;11.55;8.65;;;;;;;;;;5116892;27;20546;-80
2021/12/17 13:12:11;;;;;;;12.88;8.85;;;;;;;;;;5060561;27;1100224;-77
2021/12/17 13:14:43;;;;;;;15.23;9.35;;;;;;;;;;5104070;27;20043;-78
2021/12/17 13:17:41;;;;;;;17.23;9.82;;;;;;;;;;5132859;27;20047;-80
2021/12/17 13:22:56;;;;;;;9.52;7.72;;;;;;;;;;5130530;27;20103;-75
2021/12/17 13:25:31;;;;;;;8.98;8.05;;;;;;;;;;5131872;27;20054;-77
2021/12/17 13:27:57;;;;;;;7.60;6.50;;;;;;;;;;5120168;27;20412;-76
2021/12/17 13:30:27;;;;;;;6.80;5.82;;;;;;;;;;5131959;27;20070;-79
2021/12/17 13:32:54;;;;;;;7.63;4.55;;;;;;;;;;5125716;27;20486;-75
2021/12/17 13:35:22;;;;;;;5.95;4.45;;;;;;;;;;5133258;27;20129;-76
2021/12/17 13:37:52;;;;;;;5.93;5.32;;;;;;;;;;5134812;27;20064;-76
2021/12/17 13:40:23;;;;;;;5.55;5.00;;;;;;;;;;5115164;27;20042;-76
2021/12/17 13:42:49;;;;;;;4.05;3.42;;;;;;;;;;5120238;27;20062;-74
2021/12/17 13:45:18;;;;;;;7.07;5.03;;;;;;;;;;5131925;27;20081;-75
2021/12/17 13:47:50;;;;;;;6.10;5.45;;;;;;;;;;5159688;27;20078;-72
2021/12/17 13:50:21;;;;;;;8.30;6.10;;;;;;;;;;5161580;27;20384;-74
2021/12/17 13:52:47;;;;;;;8.52;6.28;;;;;;;;;;5148850;27;20046;-72
2021/12/17 13:55:14;;;;;;;7.35;5.90;;;;;;;;;;5151025;27;20051;-81
2021/12/17 13:57:41;;;;;;;8.23;6.55;;;;;;;;;;5117761;27;20050;-74
2021/12/17 14:00:13;;;;;;;9.60;7.00;;;;;;;;;;5133276;27;20099;-72
2021/12/17 14:02:40;;;;;;;9.02;6.88;;;;;;;;;;5142578;27;20080;-72
2021/12/17 14:05:09;;;;;;;8.95;6.90;;;;;;;;;;5147169;27;20050;-75
2021/12/17 14:07:36;;;;;;;8.63;7.43;;;;;;;;;;5141385;27;20493;-72
2021/12/17 14:10:02;;;;;;;12.10;7.88;;;;;;;;;;5133034;27;20050;-72
2021/12/17 14:12:31;;;;;;;11.38;8.10;;;;;;;;;;5119813;27;20118;-72
2021/12/17 14:14:59;;;;;;;11.48;8.15;;;;;;;;;;5147216;27;20046;-74
2021/12/17 14:17:25;;;;;;;10.25;8.25;;;;;;;;;;5150251;27;20117;-75
2021/12/17 14:19:53;;;;;;;10.82;8.32;;;;;;;;;;5135486;27;20381;-74
2021/12/17 14:22:27;;;;;;;10.80;8.70;;;;;;;;;;5147815;27;20081;-80
2021/12/17 14:24:54;;;;;;;9.02;7.47;;;;;;;;;;5130552;27;20073;-72
2021/12/17 14:27:20;;;;;;;9.35;7.88;;;;;;;;;;5131621;27;20035;-73
2021/12/17 14:29:46;;;;;;;10.07;8.10;;;;;;;;;;5147863;27;20039;-72
2021/12/17 14:32:16;;;;;;;13.40;8.20;;;;;;;;;;5110022;27;20087;-73
2021/12/17 14:34:42;;;;;;;12.10;8.48;;;;;;;;;;5148682;27;20050;-73
2021/12/17 14:37:08;;;;;;;11.07;8.25;;;;;;;;;;5133891;27;20062;-73
2021/12/17 14:39:37;;;;;;;10.50;8.35;;;;;;;;;;5151519;27;20049;-73
2021/12/17 14:42:05;;;;;;;12.25;8.63;;;;;;;;;;5131797;27;20042;-72
2021/12/17 14:44:50;;;;;;;13.23;8.00;;;;;;;;;;5131308;27;20039;-75
2021/12/17 14:47:33;;;;;;;11.88;8.50;;;;;;;;;;5134219;27;20046;-72
2021/12/17 15:01:33;;;;;;;13.48;9.38;;;;;;;;;;5129694;27;20057;-72
2021/12/17 15:03:59;;;;;;;13.63;9.52;;;;;;;;;;5133054;27;20074;-73
2021/12/17 15:06:25;;;;;;;11.80;8.82;;;;;;;;;;5131772;27;20053;-73
2021/12/17 15:08:51;;;;;;;12.43;8.85;;;;;;;;;;5153190;27;20442;-73
2021/12/17 15:11:31;;;;;;;18.10;10.35;;;;;;;;;;5128223;28;20059;-74
2021/12/17 15:13:57;;;;;;;13.15;9.13;;;;;;;;;;5121192;28;20096;-74
2021/12/17 15:16:23;;;;;;;10.85;9.05;;;;;;;;;;5092461;28;20393;-73
2021/12/17 15:18:49;;;;;;;11.52;7.88;;;;;;;;;;5108709;28;20478;-73
2021/12/17 15:21:15;;;;;;;13.48;9.65;;;;;;;;;;5116614;28;20457;-74
2021/12/17 15:23:41;;;;;;;15.07;10.70;;;;;;;;;;5116459;27;20051;-73
2021/12/17 15:26:07;;;;;;;12.30;9.52;;;;;;;;;;5115508;28;20043;-81
2021/12/17 15:28:33;;;;;;;13.40;10.68;;;;;;;;;;5120679;27;20054;-76
2021/12/17 15:31:04;;;;;;;15.85;10.55;;;;;;;;;;5114635;28;20031;-73
2021/12/17 15:33:30;;;;;;;19.73;11.07;;;;;;;;;;5115916;28;20055;-73
2021/12/17 15:35:56;;;;;;;13.93;10.02;;;;;;;;;;5121309;27;20049;-74
2021/12/17 15:38:23;;;;;;;12.85;9.38;;;;;;;;;;5119346;27;20063;-82
2021/12/17 15:40:50;;;;;;;12.40;8.75;;;;;;;;;;5124261;28;20044;-74
2021/12/17 15:43:17;;;;;;;15.85;9.48;;;;;;;;;;5116194;27;20039;-73
2021/12/17 15:45:44;;;;;;;13.85;9.77;;;;;;;;;;5121305;27;20055;-74
2021/12/17 15:48:11;;;;;;;14.25;8.80;;;;;;;;;;5122311;27;20043;-74
2021/12/17 15:50:38;;;;;;;13.63;9.20;;;;;;;;;;5126597;27;20050;-73
2021/12/17 15:53:04;;;;;;;15.90;10.18;;;;;;;;;;5105265;27;20601;-74
2021/12/17 15:55:31;;;;;;;16.98;10.30;;;;;;;;;;5122446;27;20190;-73
2021/12/17 15:57:57;;;;;;;16.75;10.70;;;;;;;;;;5119779;27;20398;-75
2021/12/17 16:00:26;;;;;;;17.33;11.18;;;;;;;;;;5117865;27;20058;-80
2021/12/17 16:02:53;;;;;;;21.00;11.88;;;;;;;;;;5106505;27;20490;-74
2021/12/17 16:05:21;;;;;;;23.42;12.45;;;;;;;;;;5126832;27;20047;-76
2021/12/17 16:07:49;;;;;;;23.45;11.90;;;;;;;;;;5122728;27;20043;-76
2021/12/17 16:21:04;;;;;;;19.58;12.00;;;;;;;;;;5129927;27;20115;-77
2021/12/17 16:23:32;;;;;;;21.33;12.43;;;;;;;;;;5111674;27;20102;-77
2021/12/17 16:25:59;;;;;;;18.27;11.55;;;;;;;;;;5112103;27;20059;-82
2021/12/17 16:28:25;;;;;;;24.77;11.82;;;;;;;;;;5128933;27;20039;-78
2021/12/17 16:30:52;;;;;;;19.35;11.77;;;;;;;;;;5113562;27;20055;-72
2021/12/17 16:33:18;;;;;;;22.75;11.32;;;;;;;;;;5129950;27;20039;-74
2021/12/17 16:35:44;;;;;;;22.85;10.25;;;;;;;;;;5112267;27;20055;-75
2021/12/17 16:38:10;;;;;;;15.65;9.95;;;;;;;;;;5127036;27;20421;-73
2021/12/17 16:40:38;;;;;;;16.45;8.65;;;;;;;;;;5127484;27;20066;-75
2021/12/17 16:43:05;;;;;;;21.30;9.13;;;;;;;;;;5110560;27;20385;-74
2021/12/17 16:45:34;;;;;;;17.17;8.18;;;;;;;;;;5130145;27;20054;-74
2021/12/17 16:48:04;;;;;;;12.23;7.32;;;;;;;;;;5128271;27;20035;-72
2021/12/17 16:50:31;;;;;;;11.88;6.97;;;;;;;;;;5124038;27;20054;-81
2021/12/17 16:52:58;;;;;;;10.45;5.13;;;;;;;;;;5128702;27;20490;-73
2021/12/17 16:55:24;;;;;;;9.45;5.22;;;;;;;;;;5126462;27;20485;-73
2021/12/17 16:57:50;;;;;;;9.90;4.70;;;;;;;;;;5129034;27;20066;-73
2021/12/17 17:00:17;;;;;;;7.28;4.72;;;;;;;;;;5129034;27;20039;-75
2021/12/17 17:02:43;;;;;;;5.93;4.68;;;;;;;;;;5125551;27;20047;-73
2021/12/17 17:05:09;;;;;;;11.15;5.78;;;;;;;;;;5130374;27;20042;-74
2021/12/17 17:07:35;;;;;;;7.63;5.70;;;;;;;;;;5128179;27;20047;-75
2021/12/17 17:10:01;;;;;;;7.80;6.70;;;;;;;;;;5129239;27;20176;-74
2021/12/17 17:12:30;;;;;;;8.88;6.22;;;;;;;;;;5096304;28;20120;-75
2021/12/17 17:14:56;;;;;;;10.88;5.53;;;;;;;;;;5093522;28;20109;-76
2021/12/17 17:17:22;;;;;;;10.80;6.43;;;;;;;;;;5106410;28;20047;-77
2021/12/17 17:19:48;;;;;;;10.35;6.63;;;;;;;;;;5109161;28;20044;-77
2021/12/17 17:22:15;;;;;;;12.48;6.28;;;;;;;;;;5090201;28;20043;-75
2021/12/17 17:24:41;;;;;;;14.15;7.20;;;;;;;;;;5109103;28;20043;-76
2021/12/17 17:27:07;;;;;;;12.27;7.47;;;;;;;;;;5108264;28;20052;-75
2021/12/17 17:29:34;;;;;;;13.00;7.43;;;;;;;;;;5105446;28;20105;-76
2021/12/17 17:32:00;;;;;;;13.57;7.50;;;;;;;;;;5107473;28;20047;-75
2021/12/17 17:34:28;;;;;;;14.85;7.53;;;;;;;;;;5109642;28;20186;-75
2021/12/17 17:36:54;;;;;;;13.07;7.57;;;;;;;;;;5092558;28;20036;-75
2021/12/17 17:39:20;;;;;;;18.50;8.15;;;;;;;;;;5106882;27;20109;-76
2021/12/17 17:41:46;;;;;;;11.60;6.78;;;;;;;;;;5107751;28;20035;-76
2021/12/17 17:44:13;;;;;;;15.40;7.32;;;;;;;;;;5109041;28;20044;-78
2021/12/17 17:46:39;;;;;;;12.77;6.93;;;;;;;;;;5106318;28;20047;-70
2021/12/17 17:49:07;;;;;;;10.18;5.47;;;;;;;;;;5096449;28;20050;-70